sensor_id;sensor_type;location;lat;lon;timestamp;temperature;humidity
3630;DHT22;1831;53.626;10.012;2022-09-21T00:01:52;17.20;58.20
3630;DHT22;1831;53.626;10.012;2022-09-21T00:04:19;17.10;58.10
3630;DHT22;1831;53.626;10.012;2022-09-21T00:06:47;17.20;58.10
3630;DHT22;1831;53.626;10.012;2022-09-21T00:09:14;17.10;58.40
3630;DHT22;1831;53.626;10.012;2022-09-21T00:11:41;17.10;58.10
3630;DHT22;1831;53.626;10.012;2022-09-21T00:14:10;17.10;58.10
3630;DHT22;1831;53.626;10.012;2022-09-21T00:16:38;17.10;58.10
3630;DHT22;1831;53.626;10.012;2022-09-21T00:19:05;17.00;58.00
3630;DHT22;1831;53.626;10.012;2022-09-21T00:21:33;17.00;58.10
3630;DHT22;1831;53.626;10.012;2022-09-21T00:24:02;17.00;58.10
3630;DHT22;1831;53.626;10.012;2022-09-21T00:26:29;17.00;58.20
3630;DHT22;1831;53.626;10.012;2022-09-21T00:28:58;17.00;58.20
3630;DHT22;1831;53.626;10.012;2022-09-21T00:31:26;17.00;58.20
3630;DHT22;1831;53.626;10.012;2022-09-21T00:33:53;17.00;58.30
3630;DHT22;1831;53.626;10.012;2022-09-21T00:36:22;17.00;58.40
3630;DHT22;1831;53.626;10.012;2022-09-21T00:38:51;16.90;58.30
3630;DHT22;1831;53.626;10.012;2022-09-21T00:41:20;16.90;58.30
3630;DHT22;1831;53.626;10.012;2022-09-21T00:44:15;16.90;58.30
3630;DHT22;1831;53.626;10.012;2022-09-21T00:46:37;16.90;58.30
3630;DHT22;1831;53.626;10.012;2022-09-21T00:49:06;16.90;58.30
3630;DHT22;1831;53.626;10.012;2022-09-21T00:51:33;16.90;58.40
3630;DHT22;1831;53.626;10.012;2022-09-21T00:54:03;16.90;58.40
3630;DHT22;1831;53.626;10.012;2022-09-21T00:56:34;16.80;58.30
3630;DHT22;1831;53.626;10.012;2022-09-21T00:59:02;16.80;58.30
3630;DHT22;1831;53.626;10.012;2022-09-21T01:01:29;16.80;58.40
3630;DHT22;1831;53.626;10.012;2022-09-21T01:03:56;16.80;58.30
3630;DHT22;1831;53.626;10.012;2022-09-21T01:06:23;16.80;58.30
3630;DHT22;1831;53.626;10.012;2022-09-21T01:08:53;16.80;58.40
3630;DHT22;1831;53.626;10.012;2022-09-21T01:11:34;16.80;58.30
3630;DHT22;1831;53.626;10.012;2022-09-21T01:14:18;16.80;58.20
3630;DHT22;1831;53.626;10.012;2022-09-21T01:16:52;16.80;58.20
3630;DHT22;1831;53.626;10.012;2022-09-21T01:19:47;16.70;58.10
3630;DHT22;1831;53.626;10.012;2022-09-21T01:22:23;16.70;58.00
3630;DHT22;1831;53.626;10.012;2022-09-21T01:25:03;16.70;58.00
3630;DHT22;1831;53.626;10.012;2022-09-21T01:27:45;16.70;57.80
3630;DHT22;1831;53.626;10.012;2022-09-21T01:30:20;16.60;57.80
3630;DHT22;1831;53.626;10.012;2022-09-21T01:32:51;16.70;57.90
3630;DHT22;1831;53.626;10.012;2022-09-21T01:35:23;16.60;57.90
3630;DHT22;1831;53.626;10.012;2022-09-21T01:37:54;16.60;57.70
3630;DHT22;1831;53.626;10.012;2022-09-21T01:40:27;16.60;57.70
3630;DHT22;1831;53.626;10.012;2022-09-21T01:42:58;16.60;57.80
3630;DHT22;1831;53.626;10.012;2022-09-21T01:45:30;16.60;57.80
3630;DHT22;1831;53.626;10.012;2022-09-21T01:47:59;16.60;57.70
3630;DHT22;1831;53.626;10.012;2022-09-21T01:50:30;16.50;57.60
3630;DHT22;1831;53.626;10.012;2022-09-21T01:53:00;16.50;58.30
3630;DHT22;1831;53.626;10.012;2022-09-21T01:55:33;16.50;57.60
3630;DHT22;1831;53.626;10.012;2022-09-21T01:58:06;16.40;57.50
3630;DHT22;1831;53.626;10.012;2022-09-21T02:00:38;16.40;57.70
3630;DHT22;1831;53.626;10.012;2022-09-21T02:03:11;16.40;57.70
3630;DHT22;1831;53.626;10.012;2022-09-21T02:05:40;16.40;57.80
3630;DHT22;1831;53.626;10.012;2022-09-21T02:08:07;16.40;57.80
3630;DHT22;1831;53.626;10.012;2022-09-21T02:10:37;16.40;57.80
3630;DHT22;1831;53.626;10.012;2022-09-21T02:13:06;16.30;57.70
3630;DHT22;1831;53.626;10.012;2022-09-21T02:15:46;16.30;57.80
3630;DHT22;1831;53.626;10.012;2022-09-21T02:18:20;16.30;58.00
3630;DHT22;1831;53.626;10.012;2022-09-21T02:20:55;16.30;57.90
3630;DHT22;1831;53.626;10.012;2022-09-21T02:23:26;16.30;57.80
3630;DHT22;1831;53.626;10.012;2022-09-21T02:26:02;16.30;57.70
3630;DHT22;1831;53.626;10.012;2022-09-21T02:28:37;16.30;57.70
3630;DHT22;1831;53.626;10.012;2022-09-21T02:31:13;16.30;57.60
3630;DHT22;1831;53.626;10.012;2022-09-21T02:33:46;16.30;57.50
3630;DHT22;1831;53.626;10.012;2022-09-21T02:36:20;16.30;57.50
3630;DHT22;1831;53.626;10.012;2022-09-21T02:38:58;16.30;57.40
3630;DHT22;1831;53.626;10.012;2022-09-21T02:41:34;16.30;57.50
3630;DHT22;1831;53.626;10.012;2022-09-21T02:44:05;16.30;57.40
3630;DHT22;1831;53.626;10.012;2022-09-21T02:46:36;16.30;57.40
3630;DHT22;1831;53.626;10.012;2022-09-21T02:49:06;16.30;57.30
3630;DHT22;1831;53.626;10.012;2022-09-21T02:51:38;16.20;57.20
3630;DHT22;1831;53.626;10.012;2022-09-21T02:54:07;16.20;57.30
3630;DHT22;1831;53.626;10.012;2022-09-21T02:56:37;16.20;57.30
3630;DHT22;1831;53.626;10.012;2022-09-21T02:59:05;16.20;57.40
3630;DHT22;1831;53.626;10.012;2022-09-21T03:01:34;16.10;57.40
3630;DHT22;1831;53.626;10.012;2022-09-21T03:04:01;16.20;57.40
3630;DHT22;1831;53.626;10.012;2022-09-21T03:06:28;16.20;57.30
3630;DHT22;1831;53.626;10.012;2022-09-21T03:08:55;16.20;57.30
3630;DHT22;1831;53.626;10.012;2022-09-21T03:11:23;16.20;57.30
3630;DHT22;1831;53.626;10.012;2022-09-21T03:13:50;16.20;57.20
3630;DHT22;1831;53.626;10.012;2022-09-21T03:16:17;16.20;57.20
3630;DHT22;1831;53.626;10.012;2022-09-21T03:18:45;16.20;57.20
3630;DHT22;1831;53.626;10.012;2022-09-21T03:21:12;16.20;58.00
3630;DHT22;1831;53.626;10.012;2022-09-21T03:23:39;16.10;57.30
3630;DHT22;1831;53.626;10.012;2022-09-21T03:26:06;16.10;57.50
3630;DHT22;1831;53.626;10.012;2022-09-21T03:28:33;16.10;57.70
3630;DHT22;1831;53.626;10.012;2022-09-21T03:31:00;16.10;57.80
3630;DHT22;1831;53.626;10.012;2022-09-21T03:33:27;16.10;57.80
3630;DHT22;1831;53.626;10.012;2022-09-21T03:35:55;16.10;57.90
3630;DHT22;1831;53.626;10.012;2022-09-21T03:38:22;16.10;58.00
3630;DHT22;1831;53.626;10.012;2022-09-21T03:40:49;16.10;58.20
3630;DHT22;1831;53.626;10.012;2022-09-21T03:43:17;16.10;58.30
3630;DHT22;1831;53.626;10.012;2022-09-21T03:45:44;16.00;58.80
3630;DHT22;1831;53.626;10.012;2022-09-21T03:48:12;16.00;59.20
3630;DHT22;1831;53.626;10.012;2022-09-21T03:50:40;16.00;59.30
3630;DHT22;1831;53.626;10.012;2022-09-21T03:53:08;16.00;59.60
3630;DHT22;1831;53.626;10.012;2022-09-21T03:55:36;16.00;59.70
3630;DHT22;1831;53.626;10.012;2022-09-21T03:58:03;16.00;59.70
3630;DHT22;1831;53.626;10.012;2022-09-21T04:00:30;16.00;59.80
3630;DHT22;1831;53.626;10.012;2022-09-21T04:02:57;16.00;60.20
3630;DHT22;1831;53.626;10.012;2022-09-21T04:05:24;16.00;60.20
3630;DHT22;1831;53.626;10.012;2022-09-21T04:07:54;16.00;60.20
3630;DHT22;1831;53.626;10.012;2022-09-21T04:10:23;16.00;60.50
3630;DHT22;1831;53.626;10.012;2022-09-21T04:12:53;16.00;60.50
3630;DHT22;1831;53.626;10.012;2022-09-21T04:15:22;16.00;60.50
3630;DHT22;1831;53.626;10.012;2022-09-21T04:17:49;16.00;60.30
3630;DHT22;1831;53.626;10.012;2022-09-21T04:20:17;15.90;60.00
3630;DHT22;1831;53.626;10.012;2022-09-21T04:22:44;15.90;59.80
3630;DHT22;1831;53.626;10.012;2022-09-21T04:25:12;15.90;59.70
3630;DHT22;1831;53.626;10.012;2022-09-21T04:27:41;15.90;59.60
3630;DHT22;1831;53.626;10.012;2022-09-21T04:30:10;15.90;60.10
3630;DHT22;1831;53.626;10.012;2022-09-21T04:32:37;15.90;59.40
3630;DHT22;1831;53.626;10.012;2022-09-21T04:35:05;15.90;60.10
3630;DHT22;1831;53.626;10.012;2022-09-21T04:37:32;15.90;59.50
3630;DHT22;1831;53.626;10.012;2022-09-21T04:39:59;15.90;59.40
3630;DHT22;1831;53.626;10.012;2022-09-21T04:42:26;15.90;59.30
3630;DHT22;1831;53.626;10.012;2022-09-21T04:44:55;15.90;59.10
3630;DHT22;1831;53.626;10.012;2022-09-21T04:47:21;15.90;59.10
3630;DHT22;1831;53.626;10.012;2022-09-21T04:49:49;15.90;59.00
3630;DHT22;1831;53.626;10.012;2022-09-21T04:52:18;15.90;59.00
3630;DHT22;1831;53.626;10.012;2022-09-21T04:54:45;15.90;58.90
3630;DHT22;1831;53.626;10.012;2022-09-21T04:57:12;15.90;58.80
3630;DHT22;1831;53.626;10.012;2022-09-21T04:59:39;15.80;58.70
3630;DHT22;1831;53.626;10.012;2022-09-21T05:02:08;15.80;58.70
3630;DHT22;1831;53.626;10.012;2022-09-21T05:04:35;15.80;58.70
3630;DHT22;1831;53.626;10.012;2022-09-21T05:07:02;15.80;58.70
3630;DHT22;1831;53.626;10.012;2022-09-21T05:09:29;15.70;58.60
3630;DHT22;1831;53.626;10.012;2022-09-21T05:12:13;15.70;58.70
3630;DHT22;1831;53.626;10.012;2022-09-21T05:14:40;15.70;58.80
3630;DHT22;1831;53.626;10.012;2022-09-21T05:17:10;15.70;58.60
3630;DHT22;1831;53.626;10.012;2022-09-21T05:19:36;15.70;58.50
3630;DHT22;1831;53.626;10.012;2022-09-21T05:22:04;15.70;58.60
3630;DHT22;1831;53.626;10.012;2022-09-21T05:24:31;15.70;58.60
3630;DHT22;1831;53.626;10.012;2022-09-21T05:26:57;15.70;58.60
3630;DHT22;1831;53.626;10.012;2022-09-21T05:29:25;15.70;58.60
3630;DHT22;1831;53.626;10.012;2022-09-21T05:31:56;15.70;58.60
3630;DHT22;1831;53.626;10.012;2022-09-21T05:34:48;15.70;58.50
3630;DHT22;1831;53.626;10.012;2022-09-21T05:37:40;15.70;58.50
3630;DHT22;1831;53.626;10.012;2022-09-21T05:40:10;15.70;58.60
3630;DHT22;1831;53.626;10.012;2022-09-21T05:42:38;15.70;58.50
3630;DHT22;1831;53.626;10.012;2022-09-21T05:45:06;15.70;58.50
3630;DHT22;1831;53.626;10.012;2022-09-21T05:47:37;15.70;58.50
3630;DHT22;1831;53.626;10.012;2022-09-21T05:50:21;15.70;58.50
3630;DHT22;1831;53.626;10.012;2022-09-21T05:52:57;15.70;58.70
3630;DHT22;1831;53.626;10.012;2022-09-21T05:55:37;15.60;58.90
3630;DHT22;1831;53.626;10.012;2022-09-21T05:58:12;15.60;58.90
3630;DHT22;1831;53.626;10.012;2022-09-21T06:00:46;15.60;59.10
3630;DHT22;1831;53.626;10.012;2022-09-21T06:03:26;15.60;59.10
3630;DHT22;1831;53.626;10.012;2022-09-21T06:05:56;15.60;59.10
3630;DHT22;1831;53.626;10.012;2022-09-21T06:08:24;15.60;59.20
3630;DHT22;1831;53.626;10.012;2022-09-21T06:10:51;15.70;59.30
3630;DHT22;1831;53.626;10.012;2022-09-21T06:13:18;15.70;59.40
3630;DHT22;1831;53.626;10.012;2022-09-21T06:15:45;15.70;59.30
3630;DHT22;1831;53.626;10.012;2022-09-21T06:18:12;15.70;59.90
3630;DHT22;1831;53.626;10.012;2022-09-21T06:20:40;15.80;59.80
3630;DHT22;1831;53.626;10.012;2022-09-21T06:23:09;15.80;60.40
3630;DHT22;1831;53.626;10.012;2022-09-21T06:25:37;15.80;60.90
3630;DHT22;1831;53.626;10.012;2022-09-21T06:28:04;15.90;61.50
3630;DHT22;1831;53.626;10.012;2022-09-21T06:30:31;15.90;61.50
3630;DHT22;1831;53.626;10.012;2022-09-21T06:32:59;15.90;61.80
3630;DHT22;1831;53.626;10.012;2022-09-21T06:35:27;15.90;62.00
3630;DHT22;1831;53.626;10.012;2022-09-21T06:37:57;16.00;62.20
3630;DHT22;1831;53.626;10.012;2022-09-21T06:40:26;16.00;62.30
3630;DHT22;1831;53.626;10.012;2022-09-21T06:42:55;16.00;62.40
3630;DHT22;1831;53.626;10.012;2022-09-21T06:45:26;16.00;62.50
3630;DHT22;1831;53.626;10.012;2022-09-21T06:47:53;16.00;62.60
3630;DHT22;1831;53.626;10.012;2022-09-21T06:50:20;16.00;62.90
3630;DHT22;1831;53.626;10.012;2022-09-21T06:52:47;16.00;63.00
3630;DHT22;1831;53.626;10.012;2022-09-21T06:55:14;16.00;64.00
3630;DHT22;1831;53.626;10.012;2022-09-21T06:57:43;16.00;63.30
3630;DHT22;1831;53.626;10.012;2022-09-21T07:00:12;16.00;63.50
3630;DHT22;1831;53.626;10.012;2022-09-21T07:02:42;16.10;63.30
3630;DHT22;1831;53.626;10.012;2022-09-21T07:05:09;16.20;63.10
3630;DHT22;1831;53.626;10.012;2022-09-21T07:07:36;16.20;63.80
3630;DHT22;1831;53.626;10.012;2022-09-21T07:10:03;16.30;63.30
3630;DHT22;1831;53.626;10.012;2022-09-21T07:12:33;16.20;63.80
3630;DHT22;1831;53.626;10.012;2022-09-21T07:15:02;16.20;63.50
3630;DHT22;1831;53.626;10.012;2022-09-21T07:17:33;16.30;64.00
3630;DHT22;1831;53.626;10.012;2022-09-21T07:20:01;16.30;64.60
3630;DHT22;1831;53.626;10.012;2022-09-21T07:22:28;16.40;64.30
3630;DHT22;1831;53.626;10.012;2022-09-21T07:24:55;16.30;64.60
3630;DHT22;1831;53.626;10.012;2022-09-21T07:27:22;16.40;64.80
3630;DHT22;1831;53.626;10.012;2022-09-21T07:29:49;16.40;64.90
3630;DHT22;1831;53.626;10.012;2022-09-21T07:32:18;16.40;65.20
3630;DHT22;1831;53.626;10.012;2022-09-21T07:34:45;16.50;65.40
3630;DHT22;1831;53.626;10.012;2022-09-21T07:37:13;16.50;65.30
3630;DHT22;1831;53.626;10.012;2022-09-21T07:39:40;16.60;65.30
3630;DHT22;1831;53.626;10.012;2022-09-21T07:42:16;16.70;65.20
3630;DHT22;1831;53.626;10.012;2022-09-21T07:44:45;16.80;65.30
3630;DHT22;1831;53.626;10.012;2022-09-21T07:47:12;16.80;65.20
3630;DHT22;1831;53.626;10.012;2022-09-21T07:49:40;16.90;65.10
3630;DHT22;1831;53.626;10.012;2022-09-21T07:52:07;16.90;65.30
3630;DHT22;1831;53.626;10.012;2022-09-21T07:54:34;17.00;65.80
3630;DHT22;1831;53.626;10.012;2022-09-21T07:57:01;17.00;65.70
3630;DHT22;1831;53.626;10.012;2022-09-21T07:59:46;17.10;65.30
3630;DHT22;1831;53.626;10.012;2022-09-21T08:02:13;17.10;65.00
3630;DHT22;1831;53.626;10.012;2022-09-21T08:04:41;17.20;65.60
3630;DHT22;1831;53.626;10.012;2022-09-21T08:07:08;17.20;65.10
3630;DHT22;1831;53.626;10.012;2022-09-21T08:09:35;17.20;65.00
3630;DHT22;1831;53.626;10.012;2022-09-21T08:12:02;17.20;65.70
3630;DHT22;1831;53.626;10.012;2022-09-21T08:14:29;17.30;65.80
3630;DHT22;1831;53.626;10.012;2022-09-21T08:16:56;17.40;64.80
3630;DHT22;1831;53.626;10.012;2022-09-21T08:19:23;17.50;64.50
3630;DHT22;1831;53.626;10.012;2022-09-21T08:21:52;17.50;64.80
3630;DHT22;1831;53.626;10.012;2022-09-21T08:24:19;17.60;64.30
3630;DHT22;1831;53.626;10.012;2022-09-21T08:26:46;17.70;64.10
3630;DHT22;1831;53.626;10.012;2022-09-21T08:29:17;17.70;64.40
3630;DHT22;1831;53.626;10.012;2022-09-21T08:31:44;17.60;64.90
3630;DHT22;1831;53.626;10.012;2022-09-21T08:34:11;17.70;65.10
3630;DHT22;1831;53.626;10.012;2022-09-21T08:36:38;17.80;65.30
3630;DHT22;1831;53.626;10.012;2022-09-21T08:39:07;17.80;65.40
3630;DHT22;1831;53.626;10.012;2022-09-21T08:41:47;17.80;65.50
3630;DHT22;1831;53.626;10.012;2022-09-21T08:44:20;18.00;64.80
3630;DHT22;1831;53.626;10.012;2022-09-21T08:47:01;18.10;65.00
3630;DHT22;1831;53.626;10.012;2022-09-21T08:49:29;18.10;65.00
3630;DHT22;1831;53.626;10.012;2022-09-21T08:52:00;18.20;64.60
3630;DHT22;1831;53.626;10.012;2022-09-21T08:54:37;18.30;64.50
3630;DHT22;1831;53.626;10.012;2022-09-21T08:57:09;18.30;64.10
3630;DHT22;1831;53.626;10.012;2022-09-21T08:59:43;18.30;64.50
3630;DHT22;1831;53.626;10.012;2022-09-21T09:02:30;18.40;63.90
3630;DHT22;1831;53.626;10.012;2022-09-21T09:05:04;18.40;64.00
3630;DHT22;1831;53.626;10.012;2022-09-21T09:07:54;18.50;63.80
3630;DHT22;1831;53.626;10.012;2022-09-21T09:10:36;18.50;63.20
3630;DHT22;1831;53.626;10.012;2022-09-21T09:13:25;18.60;63.20
3630;DHT22;1831;53.626;10.012;2022-09-21T09:16:01;18.60;63.30
3630;DHT22;1831;53.626;10.012;2022-09-21T09:18:38;18.70;62.90
3630;DHT22;1831;53.626;10.012;2022-09-21T09:21:11;18.80;62.80
3630;DHT22;1831;53.626;10.012;2022-09-21T09:23:44;18.80;62.70
3630;DHT22;1831;53.626;10.012;2022-09-21T09:26:17;18.80;62.20
3630;DHT22;1831;53.626;10.012;2022-09-21T09:28:49;18.90;61.70
3630;DHT22;1831;53.626;10.012;2022-09-21T09:31:21;18.90;61.80
3630;DHT22;1831;53.626;10.012;2022-09-21T09:33:54;19.00;61.60
3630;DHT22;1831;53.626;10.012;2022-09-21T09:36:24;19.00;60.30
3630;DHT22;1831;53.626;10.012;2022-09-21T09:38:55;19.00;60.30
3630;DHT22;1831;53.626;10.012;2022-09-21T09:44:55;19.20;59.60
3630;DHT22;1831;53.626;10.012;2022-09-21T09:47:35;19.20;59.20
3630;DHT22;1831;53.626;10.012;2022-09-21T09:50:11;19.30;59.30
3630;DHT22;1831;53.626;10.012;2022-09-21T09:52:39;19.40;59.40
3630;DHT22;1831;53.626;10.012;2022-09-21T09:55:16;19.40;58.40
3630;DHT22;1831;53.626;10.012;2022-09-21T09:57:46;19.30;58.50
3630;DHT22;1831;53.626;10.012;2022-09-21T10:00:16;19.50;58.50
3630;DHT22;1831;53.626;10.012;2022-09-21T10:02:54;19.50;58.20
3630;DHT22;1831;53.626;10.012;2022-09-21T10:05:24;19.50;57.90
3630;DHT22;1831;53.626;10.012;2022-09-21T10:07:57;19.60;57.70
3630;DHT22;1831;53.626;10.012;2022-09-21T10:10:34;19.60;57.90
3630;DHT22;1831;53.626;10.012;2022-09-21T10:13:09;19.40;56.70
3630;DHT22;1831;53.626;10.012;2022-09-21T10:15:48;19.50;57.10
3630;DHT22;1831;53.626;10.012;2022-09-21T10:18:23;19.70;57.70
3630;DHT22;1831;53.626;10.012;2022-09-21T10:20:54;19.80;57.10
3630;DHT22;1831;53.626;10.012;2022-09-21T10:23:22;19.90;57.60
3630;DHT22;1831;53.626;10.012;2022-09-21T10:25:58;19.90;57.20
3630;DHT22;1831;53.626;10.012;2022-09-21T10:28:28;20.00;57.20
3630;DHT22;1831;53.626;10.012;2022-09-21T10:31:08;20.10;57.40
3630;DHT22;1831;53.626;10.012;2022-09-21T10:33:48;20.00;56.20
3630;DHT22;1831;53.626;10.012;2022-09-21T10:36:25;20.10;56.20
3630;DHT22;1831;53.626;10.012;2022-09-21T10:38:52;20.10;55.50
3630;DHT22;1831;53.626;10.012;2022-09-21T10:41:19;20.20;54.60
3630;DHT22;1831;53.626;10.012;2022-09-21T10:43:48;20.20;54.60
3630;DHT22;1831;53.626;10.012;2022-09-21T10:46:16;20.20;54.70
3630;DHT22;1831;53.626;10.012;2022-09-21T10:48:57;20.10;54.20
3630;DHT22;1831;53.626;10.012;2022-09-21T10:51:27;20.10;53.90
3630;DHT22;1831;53.626;10.012;2022-09-21T10:53:55;20.20;53.30
3630;DHT22;1831;53.626;10.012;2022-09-21T10:56:23;20.10;53.00
3630;DHT22;1831;53.626;10.012;2022-09-21T10:59:10;20.20;53.60
3630;DHT22;1831;53.626;10.012;2022-09-21T11:01:43;20.10;51.80
3630;DHT22;1831;53.626;10.012;2022-09-21T11:04:14;20.20;53.50
3630;DHT22;1831;53.626;10.012;2022-09-21T11:06:45;20.20;51.40
3630;DHT22;1831;53.626;10.012;2022-09-21T11:09:17;20.30;51.90
3630;DHT22;1831;53.626;10.012;2022-09-21T11:11:49;20.20;52.60
3630;DHT22;1831;53.626;10.012;2022-09-21T11:14:28;20.30;52.40
3630;DHT22;1831;53.626;10.012;2022-09-21T11:17:03;20.30;51.30
3630;DHT22;1831;53.626;10.012;2022-09-21T11:19:37;20.40;49.50
3630;DHT22;1831;53.626;10.012;2022-09-21T11:22:10;20.40;47.90
3630;DHT22;1831;53.626;10.012;2022-09-21T11:24:45;20.40;47.30
3630;DHT22;1831;53.626;10.012;2022-09-21T11:27:18;20.40;47.70
3630;DHT22;1831;53.626;10.012;2022-09-21T11:29:56;20.40;48.40
3630;DHT22;1831;53.626;10.012;2022-09-21T11:32:36;20.40;47.80
3630;DHT22;1831;53.626;10.012;2022-09-21T11:35:25;20.50;46.90
3630;DHT22;1831;53.626;10.012;2022-09-21T11:38:04;20.50;46.40
3630;DHT22;1831;53.626;10.012;2022-09-21T11:41:02;20.60;48.30
3630;DHT22;1831;53.626;10.012;2022-09-21T11:44:00;20.60;48.50
3630;DHT22;1831;53.626;10.012;2022-09-21T11:46:39;20.60;48.80
3630;DHT22;1831;53.626;10.012;2022-09-21T11:49:38;20.60;48.30
3630;DHT22;1831;53.626;10.012;2022-09-21T11:52:28;20.70;48.30
3630;DHT22;1831;53.626;10.012;2022-09-21T11:55:18;20.70;47.20
3630;DHT22;1831;53.626;10.012;2022-09-21T11:57:52;20.70;47.40
3630;DHT22;1831;53.626;10.012;2022-09-21T12:00:20;20.70;46.10
3630;DHT22;1831;53.626;10.012;2022-09-21T12:03:15;20.80;46.20
3630;DHT22;1831;53.626;10.012;2022-09-21T12:06:02;20.80;47.40
3630;DHT22;1831;53.626;10.012;2022-09-21T12:08:50;20.90;47.10
3630;DHT22;1831;53.626;10.012;2022-09-21T12:11:31;20.80;46.60
3630;DHT22;1831;53.626;10.012;2022-09-21T12:14:06;20.80;47.00
3630;DHT22;1831;53.626;10.012;2022-09-21T12:16:40;20.80;47.90
3630;DHT22;1831;53.626;10.012;2022-09-21T12:19:17;20.80;47.80
3630;DHT22;1831;53.626;10.012;2022-09-21T12:21:48;20.80;47.40
3630;DHT22;1831;53.626;10.012;2022-09-21T12:24:20;20.90;48.00
3630;DHT22;1831;53.626;10.012;2022-09-21T12:26:50;20.80;46.40
3630;DHT22;1831;53.626;10.012;2022-09-21T12:29:25;20.90;46.70
3630;DHT22;1831;53.626;10.012;2022-09-21T12:31:57;20.90;46.70
3630;DHT22;1831;53.626;10.012;2022-09-21T12:34:34;20.90;46.40
3630;DHT22;1831;53.626;10.012;2022-09-21T12:37:09;20.90;46.00
3630;DHT22;1831;53.626;10.012;2022-09-21T12:39:41;21.00;47.10
3630;DHT22;1831;53.626;10.012;2022-09-21T12:42:22;20.90;45.40
3630;DHT22;1831;53.626;10.012;2022-09-21T12:44:54;20.90;44.70
3630;DHT22;1831;53.626;10.012;2022-09-21T12:47:40;21.00;45.20
3630;DHT22;1831;53.626;10.012;2022-09-21T12:50:17;21.10;45.30
3630;DHT22;1831;53.626;10.012;2022-09-21T12:52:46;21.10;42.70
3630;DHT22;1831;53.626;10.012;2022-09-21T12:55:27;21.20;42.80
3630;DHT22;1831;53.626;10.012;2022-09-21T12:58:15;21.30;43.90
3630;DHT22;1831;53.626;10.012;2022-09-21T13:00:49;21.30;43.50
3630;DHT22;1831;53.626;10.012;2022-09-21T13:03:20;21.20;42.10
3630;DHT22;1831;53.626;10.012;2022-09-21T13:06:21;21.30;42.80
3630;DHT22;1831;53.626;10.012;2022-09-21T13:08:54;21.30;42.10
3630;DHT22;1831;53.626;10.012;2022-09-21T13:11:22;21.50;42.60
3630;DHT22;1831;53.626;10.012;2022-09-21T13:13:52;21.60;42.40
3630;DHT22;1831;53.626;10.012;2022-09-21T13:16:25;21.70;41.90
3630;DHT22;1831;53.626;10.012;2022-09-21T13:18:54;21.80;41.40
3630;DHT22;1831;53.626;10.012;2022-09-21T13:21:25;21.90;40.70
3630;DHT22;1831;53.626;10.012;2022-09-21T13:23:56;22.10;41.90
3630;DHT22;1831;53.626;10.012;2022-09-21T13:26:34;22.20;40.60
3630;DHT22;1831;53.626;10.012;2022-09-21T13:32:21;22.70;39.60
3630;DHT22;1831;53.626;10.012;2022-09-21T13:34:49;23.70;40.70
3630;DHT22;1831;53.626;10.012;2022-09-21T13:37:32;25.00;38.20
3630;DHT22;1831;53.626;10.012;2022-09-21T13:40:32;26.80;34.70
3630;DHT22;1831;53.626;10.012;2022-09-21T13:43:18;28.90;31.60
3630;DHT22;1831;53.626;10.012;2022-09-21T13:45:54;30.40;31.90
3630;DHT22;1831;53.626;10.012;2022-09-21T13:48:24;31.60;30.10
3630;DHT22;1831;53.626;10.012;2022-09-21T13:51:06;32.60;29.30
3630;DHT22;1831;53.626;10.012;2022-09-21T13:53:38;33.40;26.90
3630;DHT22;1831;53.626;10.012;2022-09-21T13:56:09;34.20;24.80
3630;DHT22;1831;53.626;10.012;2022-09-21T13:58:45;34.80;25.30
3630;DHT22;1831;53.626;10.012;2022-09-21T14:01:16;35.10;24.30
3630;DHT22;1831;53.626;10.012;2022-09-21T14:03:48;35.40;23.40
3630;DHT22;1831;53.626;10.012;2022-09-21T14:06:19;35.70;23.00
3630;DHT22;1831;53.626;10.012;2022-09-21T14:08:53;36.10;22.60
3630;DHT22;1831;53.626;10.012;2022-09-21T14:11:28;36.20;22.70
3630;DHT22;1831;53.626;10.012;2022-09-21T14:14:07;36.20;24.40
3630;DHT22;1831;53.626;10.012;2022-09-21T14:16:50;35.50;24.20
3630;DHT22;1831;53.626;10.012;2022-09-21T14:22:40;32.80;23.10
3630;DHT22;1831;53.626;10.012;2022-09-21T14:25:28;31.10;24.20
3630;DHT22;1831;53.626;10.012;2022-09-21T14:27:59;29.80;26.70
3630;DHT22;1831;53.626;10.012;2022-09-21T14:30:31;28.80;27.20
3630;DHT22;1831;53.626;10.012;2022-09-21T14:33:19;28.00;28.60
3630;DHT22;1831;53.626;10.012;2022-09-21T14:35:47;27.20;29.50
3630;DHT22;1831;53.626;10.012;2022-09-21T14:38:20;26.80;29.70
3630;DHT22;1831;53.626;10.012;2022-09-21T14:40:50;26.30;31.30
3630;DHT22;1831;53.626;10.012;2022-09-21T14:43:20;26.00;32.30
3630;DHT22;1831;53.626;10.012;2022-09-21T14:46:02;26.20;32.60
3630;DHT22;1831;53.626;10.012;2022-09-21T14:48:39;27.20;31.60
3630;DHT22;1831;53.626;10.012;2022-09-21T14:51:18;28.40;30.90
3630;DHT22;1831;53.626;10.012;2022-09-21T14:54:02;28.90;28.70
3630;DHT22;1831;53.626;10.012;2022-09-21T14:56:59;28.80;28.30
3630;DHT22;1831;53.626;10.012;2022-09-21T14:59:40;28.10;29.30
3630;DHT22;1831;53.626;10.012;2022-09-21T15:02:16;27.30;30.30
3630;DHT22;1831;53.626;10.012;2022-09-21T15:05:03;26.70;30.90
3630;DHT22;1831;53.626;10.012;2022-09-21T15:07:37;26.50;33.40
3630;DHT22;1831;53.626;10.012;2022-09-21T15:10:27;26.90;32.40
3630;DHT22;1831;53.626;10.012;2022-09-21T15:13:36;27.20;31.70
3630;DHT22;1831;53.626;10.012;2022-09-21T15:16:29;26.90;31.40
3630;DHT22;1831;53.626;10.012;2022-09-21T15:19:21;26.30;33.40
3630;DHT22;1831;53.626;10.012;2022-09-21T15:21:49;26.10;34.10
3630;DHT22;1831;53.626;10.012;2022-09-21T15:24:19;26.40;35.10
3630;DHT22;1831;53.626;10.012;2022-09-21T15:26:48;27.00;34.20
3630;DHT22;1831;53.626;10.012;2022-09-21T15:29:23;27.70;33.90
3630;DHT22;1831;53.626;10.012;2022-09-21T15:31:51;28.10;31.60
3630;DHT22;1831;53.626;10.012;2022-09-21T15:34:18;28.20;32.30
3630;DHT22;1831;53.626;10.012;2022-09-21T15:36:45;28.00;31.60
3630;DHT22;1831;53.626;10.012;2022-09-21T15:39:24;27.50;33.50
3630;DHT22;1831;53.626;10.012;2022-09-21T15:42:12;26.90;33.80
3630;DHT22;1831;53.626;10.012;2022-09-21T15:44:44;26.40;35.50
3630;DHT22;1831;53.626;10.012;2022-09-21T15:47:14;25.80;37.10
3630;DHT22;1831;53.626;10.012;2022-09-21T15:49:41;25.40;36.80
3630;DHT22;1831;53.626;10.012;2022-09-21T15:52:12;25.10;37.10
3630;DHT22;1831;53.626;10.012;2022-09-21T15:54:41;24.80;38.00
3630;DHT22;1831;53.626;10.012;2022-09-21T15:57:25;24.50;37.90
3630;DHT22;1831;53.626;10.012;2022-09-21T15:59:54;24.40;39.20
3630;DHT22;1831;53.626;10.012;2022-09-21T16:02:24;24.20;39.00
3630;DHT22;1831;53.626;10.012;2022-09-21T16:04:51;24.10;39.80
3630;DHT22;1831;53.626;10.012;2022-09-21T16:07:24;23.90;39.80
3630;DHT22;1831;53.626;10.012;2022-09-21T16:09:52;23.80;40.00
3630;DHT22;1831;53.626;10.012;2022-09-21T16:12:41;23.60;38.20
3630;DHT22;1831;53.626;10.012;2022-09-21T16:15:17;23.60;39.50
3630;DHT22;1831;53.626;10.012;2022-09-21T16:17:55;23.60;40.10
3630;DHT22;1831;53.626;10.012;2022-09-21T16:20:37;23.50;40.70
3630;DHT22;1831;53.626;10.012;2022-09-21T16:23:12;23.40;41.50
3630;DHT22;1831;53.626;10.012;2022-09-21T16:25:40;23.40;41.30
3630;DHT22;1831;53.626;10.012;2022-09-21T16:28:27;23.30;41.60
3630;DHT22;1831;53.626;10.012;2022-09-21T16:30:56;23.20;41.50